sensor_id;sensor_type;location;lat;lon;timestamp;temperature;humidity
76855;DHT22;66343;44.588;33.450;2023-06-22T00:01:08;23.27;75.16
76855;DHT22;66343;44.588;33.450;2023-06-22T00:03:40;23.27;75.17
76855;DHT22;66343;44.588;33.450;2023-06-22T00:06:12;23.26;75.18
76855;DHT22;66343;44.588;33.450;2023-06-22T00:08:45;23.27;75.03
76855;DHT22;66343;44.588;33.450;2023-06-22T00:11:16;23.29;75.00
76855;DHT22;66343;44.588;33.450;2023-06-22T00:13:48;23.26;75.05
76855;DHT22;66343;44.588;33.450;2023-06-22T00:16:19;23.28;74.92
76855;DHT22;66343;44.588;33.450;2023-06-22T00:18:53;23.25;75.12
76855;DHT22;66343;44.588;33.450;2023-06-22T00:21:29;23.23;75.60
76855;DHT22;66343;44.588;33.450;2023-06-22T00:24:05;23.14;75.76
76855;DHT22;66343;44.588;33.450;2023-06-22T00:26:37;23.15;75.63
76855;DHT22;66343;44.588;33.450;2023-06-22T00:29:10;23.13;75.63
76855;DHT22;66343;44.588;33.450;2023-06-22T00:31:39;23.14;75.86
76855;DHT22;66343;44.588;33.450;2023-06-22T00:34:15;23.15;75.82
76855;DHT22;66343;44.588;33.450;2023-06-22T00:36:48;23.15;75.95
76855;DHT22;66343;44.588;33.450;2023-06-22T00:39:20;23.14;75.87
76855;DHT22;66343;44.588;33.450;2023-06-22T00:41:53;23.10;76.30
76855;DHT22;66343;44.588;33.450;2023-06-22T00:44:22;23.10;76.27
76855;DHT22;66343;44.588;33.450;2023-06-22T00:46:53;23.10;76.16
76855;DHT22;66343;44.588;33.450;2023-06-22T00:49:25;23.10;76.18
76855;DHT22;66343;44.588;33.450;2023-06-22T00:51:55;23.08;76.45
76855;DHT22;66343;44.588;33.450;2023-06-22T00:54:27;22.97;77.04
76855;DHT22;66343;44.588;33.450;2023-06-22T00:57:04;22.94;76.78
76855;DHT22;66343;44.588;33.450;2023-06-22T00:59:42;22.99;76.48
76855;DHT22;66343;44.588;33.450;2023-06-22T01:02:16;22.97;76.94
76855;DHT22;66343;44.588;33.450;2023-06-22T01:04:48;22.95;77.02
76855;DHT22;66343;44.588;33.450;2023-06-22T01:07:38;22.88;77.26
76855;DHT22;66343;44.588;33.450;2023-06-22T01:10:34;22.87;77.24
76855;DHT22;66343;44.588;33.450;2023-06-22T01:13:11;22.88;77.22
76855;DHT22;66343;44.588;33.450;2023-06-22T01:16:00;22.87;77.09
76855;DHT22;66343;44.588;33.450;2023-06-22T01:18:31;22.92;76.89
76855;DHT22;66343;44.588;33.450;2023-06-22T01:21:08;22.92;76.74
76855;DHT22;66343;44.588;33.450;2023-06-22T01:24:18;22.87;76.71
76855;DHT22;66343;44.588;33.450;2023-06-22T01:29:54;22.86;76.72
76855;DHT22;66343;44.588;33.450;2023-06-22T01:32:32;22.81;76.90
76855;DHT22;66343;44.588;33.450;2023-06-22T01:35:07;22.77;76.97
76855;DHT22;66343;44.588;33.450;2023-06-22T01:37:40;22.72;77.08
76855;DHT22;66343;44.588;33.450;2023-06-22T01:40:12;22.70;77.15
76855;DHT22;66343;44.588;33.450;2023-06-22T01:42:44;22.71;76.83
76855;DHT22;66343;44.588;33.450;2023-06-22T01:45:19;22.69;76.88
76855;DHT22;66343;44.588;33.450;2023-06-22T01:47:51;22.67;76.96
76855;DHT22;66343;44.588;33.450;2023-06-22T01:50:23;22.66;76.95
76855;DHT22;66343;44.588;33.450;2023-06-22T01:52:55;22.64;77.14
76855;DHT22;66343;44.588;33.450;2023-06-22T01:55:29;22.61;77.23
76855;DHT22;66343;44.588;33.450;2023-06-22T01:58:01;22.62;76.97
76855;DHT22;66343;44.588;33.450;2023-06-22T02:00:31;22.62;76.65
76855;DHT22;66343;44.588;33.450;2023-06-22T02:03:11;22.60;76.57
76855;DHT22;66343;44.588;33.450;2023-06-22T02:05:47;22.61;76.41
76855;DHT22;66343;44.588;33.450;2023-06-22T02:08:27;22.57;76.36
76855;DHT22;66343;44.588;33.450;2023-06-22T02:11:00;22.53;76.40
76855;DHT22;66343;44.588;33.450;2023-06-22T02:13:34;22.50;76.47
76855;DHT22;66343;44.588;33.450;2023-06-22T02:16:04;22.50;76.50
76855;DHT22;66343;44.588;33.450;2023-06-22T02:18:39;22.48;76.30
76855;DHT22;66343;44.588;33.450;2023-06-22T02:21:18;22.48;76.48
76855;DHT22;66343;44.588;33.450;2023-06-22T02:23:56;22.51;76.02
76855;DHT22;66343;44.588;33.450;2023-06-22T02:26:26;22.49;75.75
76855;DHT22;66343;44.588;33.450;2023-06-22T02:28:55;22.44;75.73
76855;DHT22;66343;44.588;33.450;2023-06-22T02:31:28;22.41;75.79
76855;DHT22;66343;44.588;33.450;2023-06-22T02:33:59;22.43;75.40
76855;DHT22;66343;44.588;33.450;2023-06-22T02:36:32;22.42;75.12
76855;DHT22;66343;44.588;33.450;2023-06-22T02:39:05;22.44;74.99
76855;DHT22;66343;44.588;33.450;2023-06-22T02:41:37;22.49;74.60
76855;DHT22;66343;44.588;33.450;2023-06-22T02:44:08;22.51;74.16
76855;DHT22;66343;44.588;33.450;2023-06-22T02:46:40;22.52;74.15
76855;DHT22;66343;44.588;33.450;2023-06-22T02:49:10;22.57;73.22
76855;DHT22;66343;44.588;33.450;2023-06-22T02:51:44;22.60;72.61
76855;DHT22;66343;44.588;33.450;2023-06-22T02:54:18;22.61;71.77
76855;DHT22;66343;44.588;33.450;2023-06-22T02:56:51;22.62;71.41
76855;DHT22;66343;44.588;33.450;2023-06-22T02:59:24;22.63;70.35
76855;DHT22;66343;44.588;33.450;2023-06-22T03:02:03;22.61;69.59
76855;DHT22;66343;44.588;33.450;2023-06-22T03:04:38;22.61;69.80
76855;DHT22;66343;44.588;33.450;2023-06-22T03:07:10;22.63;70.41
76855;DHT22;66343;44.588;33.450;2023-06-22T03:09:40;22.66;70.50
76855;DHT22;66343;44.588;33.450;2023-06-22T03:12:11;22.67;69.91
76855;DHT22;66343;44.588;33.450;2023-06-22T03:14:52;22.67;69.43
76855;DHT22;66343;44.588;33.450;2023-06-22T03:17:24;22.69;68.89
76855;DHT22;66343;44.588;33.450;2023-06-22T03:19:56;22.71;68.52
76855;DHT22;66343;44.588;33.450;2023-06-22T03:22:28;22.77;68.47
76855;DHT22;66343;44.588;33.450;2023-06-22T03:24:58;22.73;67.57
76855;DHT22;66343;44.588;33.450;2023-06-22T03:27:27;22.76;67.34
76855;DHT22;66343;44.588;33.450;2023-06-22T03:30:00;22.78;67.01
76855;DHT22;66343;44.588;33.450;2023-06-22T03:32:38;22.80;66.22
76855;DHT22;66343;44.588;33.450;2023-06-22T03:35:09;22.83;65.98
76855;DHT22;66343;44.588;33.450;2023-06-22T03:37:44;22.86;64.71
76855;DHT22;66343;44.588;33.450;2023-06-22T03:40:18;22.90;63.97
76855;DHT22;66343;44.588;33.450;2023-06-22T03:42:47;22.88;63.64
76855;DHT22;66343;44.588;33.450;2023-06-22T03:45:16;22.92;63.77
76855;DHT22;66343;44.588;33.450;2023-06-22T03:47:51;22.96;63.51
76855;DHT22;66343;44.588;33.450;2023-06-22T03:50:23;23.00;64.24
76855;DHT22;66343;44.588;33.450;2023-06-22T03:52:53;23.03;63.50
76855;DHT22;66343;44.588;33.450;2023-06-22T03:55:25;23.10;63.69
76855;DHT22;66343;44.588;33.450;2023-06-22T03:57:59;23.11;62.40
76855;DHT22;66343;44.588;33.450;2023-06-22T04:00:34;23.12;61.26
76855;DHT22;66343;44.588;33.450;2023-06-22T04:03:07;23.18;62.25
76855;DHT22;66343;44.588;33.450;2023-06-22T04:05:42;23.21;61.70
76855;DHT22;66343;44.588;33.450;2023-06-22T04:08:16;23.23;61.54
76855;DHT22;66343;44.588;33.450;2023-06-22T04:10:45;23.26;61.10
76855;DHT22;66343;44.588;33.450;2023-06-22T04:13:15;23.26;60.57
76855;DHT22;66343;44.588;33.450;2023-06-22T04:15:44;23.26;59.83
76855;DHT22;66343;44.588;33.450;2023-06-22T04:18:13;23.26;59.57
76855;DHT22;66343;44.588;33.450;2023-06-22T04:20:47;23.28;60.36
76855;DHT22;66343;44.588;33.450;2023-06-22T04:23:17;23.30;61.10
76855;DHT22;66343;44.588;33.450;2023-06-22T04:25:46;23.31;61.35
76855;DHT22;66343;44.588;33.450;2023-06-22T04:28:15;23.32;61.79
76855;DHT22;66343;44.588;33.450;2023-06-22T04:30:46;23.31;61.05
76855;DHT22;66343;44.588;33.450;2023-06-22T04:33:18;23.35;60.96
76855;DHT22;66343;44.588;33.450;2023-06-22T04:35:50;23.37;59.83
76855;DHT22;66343;44.588;33.450;2023-06-22T04:38:28;23.39;59.53
76855;DHT22;66343;44.588;33.450;2023-06-22T04:40:58;23.41;59.05
76855;DHT22;66343;44.588;33.450;2023-06-22T04:43:32;23.42;58.84
76855;DHT22;66343;44.588;33.450;2023-06-22T04:46:03;23.47;57.22
76855;DHT22;66343;44.588;33.450;2023-06-22T04:48:41;23.52;57.03
76855;DHT22;66343;44.588;33.450;2023-06-22T04:51:10;23.50;56.00
76855;DHT22;66343;44.588;33.450;2023-06-22T04:53:44;23.45;55.79
76855;DHT22;66343;44.588;33.450;2023-06-22T04:56:21;23.46;55.63
76855;DHT22;66343;44.588;33.450;2023-06-22T04:58:55;23.49;56.50
76855;DHT22;66343;44.588;33.450;2023-06-22T05:01:32;23.49;57.95
76855;DHT22;66343;44.588;33.450;2023-06-22T05:04:03;23.47;58.63
76855;DHT22;66343;44.588;33.450;2023-06-22T05:06:38;23.46;58.76
76855;DHT22;66343;44.588;33.450;2023-06-22T05:09:11;23.49;59.87
76855;DHT22;66343;44.588;33.450;2023-06-22T05:11:44;23.44;59.86
76855;DHT22;66343;44.588;33.450;2023-06-22T05:14:17;23.42;59.83
76855;DHT22;66343;44.588;33.450;2023-06-22T05:16:50;23.39;59.65
76855;DHT22;66343;44.588;33.450;2023-06-22T05:19:20;23.37;59.86
76855;DHT22;66343;44.588;33.450;2023-06-22T05:21:53;23.38;60.01
76855;DHT22;66343;44.588;33.450;2023-06-22T05:24:24;23.42;60.73
76855;DHT22;66343;44.588;33.450;2023-06-22T05:26:58;23.50;60.39
76855;DHT22;66343;44.588;33.450;2023-06-22T05:29:28;23.52;59.17
76855;DHT22;66343;44.588;33.450;2023-06-22T05:31:59;23.54;58.93
76855;DHT22;66343;44.588;33.450;2023-06-22T05:34:35;23.55;58.77
76855;DHT22;66343;44.588;33.450;2023-06-22T05:37:09;23.60;59.51
76855;DHT22;66343;44.588;33.450;2023-06-22T05:39:46;23.64;60.11
76855;DHT22;66343;44.588;33.450;2023-06-22T05:42:15;23.76;59.70
76855;DHT22;66343;44.588;33.450;2023-06-22T05:44:47;23.87;59.42
76855;DHT22;66343;44.588;33.450;2023-06-22T05:47:17;23.95;58.27
76855;DHT22;66343;44.588;33.450;2023-06-22T05:49:46;24.02;58.58
76855;DHT22;66343;44.588;33.450;2023-06-22T05:52:18;24.09;58.84
76855;DHT22;66343;44.588;33.450;2023-06-22T05:54:55;24.11;58.67
76855;DHT22;66343;44.588;33.450;2023-06-22T05:57:27;24.19;58.35
76855;DHT22;66343;44.588;33.450;2023-06-22T05:59:57;24.26;58.29
76855;DHT22;66343;44.588;33.450;2023-06-22T06:02:27;24.32;58.62
76855;DHT22;66343;44.588;33.450;2023-06-22T06:04:56;24.33;57.66
76855;DHT22;66343;44.588;33.450;2023-06-22T06:07:37;24.33;58.34
76855;DHT22;66343;44.588;33.450;2023-06-22T06:10:11;24.41;57.87
76855;DHT22;66343;44.588;33.450;2023-06-22T06:12:41;24.46;56.58
76855;DHT22;66343;44.588;33.450;2023-06-22T06:15:16;24.53;56.97
76855;DHT22;66343;44.588;33.450;2023-06-22T06:17:52;24.56;56.00
76855;DHT22;66343;44.588;33.450;2023-06-22T06:20:31;24.47;56.20
76855;DHT22;66343;44.588;33.450;2023-06-22T06:23:06;24.45;57.06
76855;DHT22;66343;44.588;33.450;2023-06-22T06:25:40;24.46;57.19
76855;DHT22;66343;44.588;33.450;2023-06-22T06:28:12;24.43;57.47
76855;DHT22;66343;44.588;33.450;2023-06-22T06:30:43;24.45;60.12
76855;DHT22;66343;44.588;33.450;2023-06-22T06:33:15;24.46;59.63
76855;DHT22;66343;44.588;33.450;2023-06-22T06:35:47;24.49;59.58
76855;DHT22;66343;44.588;33.450;2023-06-22T06:38:17;24.53;60.60
76855;DHT22;66343;44.588;33.450;2023-06-22T06:40:48;24.55;61.92
76855;DHT22;66343;44.588;33.450;2023-06-22T06:43:21;24.61;59.69
76855;DHT22;66343;44.588;33.450;2023-06-22T06:45:55;24.72;62.02
76855;DHT22;66343;44.588;33.450;2023-06-22T06:48:27;24.71;64.40
76855;DHT22;66343;44.588;33.450;2023-06-22T06:50:57;24.66;64.79
76855;DHT22;66343;44.588;33.450;2023-06-22T06:53:30;24.65;64.86
76855;DHT22;66343;44.588;33.450;2023-06-22T06:56:07;24.72;66.04
76855;DHT22;66343;44.588;33.450;2023-06-22T06:58:45;24.74;65.66
76855;DHT22;66343;44.588;33.450;2023-06-22T07:01:19;24.77;65.57
76855;DHT22;66343;44.588;33.450;2023-06-22T07:03:49;24.82;65.40
76855;DHT22;66343;44.588;33.450;2023-06-22T07:06:24;24.82;66.20
76855;DHT22;66343;44.588;33.450;2023-06-22T07:09:02;24.83;66.47
76855;DHT22;66343;44.588;33.450;2023-06-22T07:11:32;24.79;66.98
76855;DHT22;66343;44.588;33.450;2023-06-22T07:14:04;24.79;66.72
76855;DHT22;66343;44.588;33.450;2023-06-22T07:16:33;24.78;66.65
76855;DHT22;66343;44.588;33.450;2023-06-22T07:19:02;24.77;66.08
76855;DHT22;66343;44.588;33.450;2023-06-22T07:21:31;24.76;65.79
76855;DHT22;66343;44.588;33.450;2023-06-22T07:24:00;24.74;66.22
76855;DHT22;66343;44.588;33.450;2023-06-22T07:26:30;24.74;66.20
76855;DHT22;66343;44.588;33.450;2023-06-22T07:29:01;24.69;65.34
76855;DHT22;66343;44.588;33.450;2023-06-22T07:31:30;24.70;66.17
76855;DHT22;66343;44.588;33.450;2023-06-22T07:34:00;24.71;66.01
76855;DHT22;66343;44.588;33.450;2023-06-22T07:36:31;24.73;65.65
76855;DHT22;66343;44.588;33.450;2023-06-22T07:39:03;24.83;65.46
76855;DHT22;66343;44.588;33.450;2023-06-22T07:41:32;24.87;64.30
76855;DHT22;66343;44.588;33.450;2023-06-22T07:44:05;24.93;64.48
76855;DHT22;66343;44.588;33.450;2023-06-22T07:46:37;25.01;64.21
76855;DHT22;66343;44.588;33.450;2023-06-22T07:49:06;25.08;63.37
76855;DHT22;66343;44.588;33.450;2023-06-22T07:51:36;25.17;63.62
76855;DHT22;66343;44.588;33.450;2023-06-22T07:54:06;25.16;63.99
76855;DHT22;66343;44.588;33.450;2023-06-22T07:56:37;25.14;64.07
76855;DHT22;66343;44.588;33.450;2023-06-22T07:59:06;25.21;63.72
76855;DHT22;66343;44.588;33.450;2023-06-22T08:01:38;25.27;63.59
76855;DHT22;66343;44.588;33.450;2023-06-22T08:04:08;25.36;63.95
76855;DHT22;66343;44.588;33.450;2023-06-22T08:06:38;25.49;65.33
76855;DHT22;66343;44.588;33.450;2023-06-22T08:09:09;25.61;63.13
76855;DHT22;66343;44.588;33.450;2023-06-22T08:11:38;25.76;59.06
76855;DHT22;66343;44.588;33.450;2023-06-22T08:14:07;25.86;58.47
76855;DHT22;66343;44.588;33.450;2023-06-22T08:16:37;25.95;58.50
76855;DHT22;66343;44.588;33.450;2023-06-22T08:19:06;26.02;57.87
76855;DHT22;66343;44.588;33.450;2023-06-22T08:21:35;26.15;57.13
76855;DHT22;66343;44.588;33.450;2023-06-22T08:24:04;26.21;58.49
76855;DHT22;66343;44.588;33.450;2023-06-22T08:26:34;26.19;57.00
76855;DHT22;66343;44.588;33.450;2023-06-22T08:29:05;26.19;57.21
76855;DHT22;66343;44.588;33.450;2023-06-22T08:31:35;26.18;57.22
76855;DHT22;66343;44.588;33.450;2023-06-22T08:34:07;26.20;58.46
76855;DHT22;66343;44.588;33.450;2023-06-22T08:36:36;26.35;55.49
76855;DHT22;66343;44.588;33.450;2023-06-22T08:39:10;26.38;55.64
76855;DHT22;66343;44.588;33.450;2023-06-22T08:41:39;26.45;55.94
76855;DHT22;66343;44.588;33.450;2023-06-22T08:44:08;26.57;56.28
76855;DHT22;66343;44.588;33.450;2023-06-22T08:46:38;26.63;55.35
76855;DHT22;66343;44.588;33.450;2023-06-22T08:49:09;26.61;53.19
76855;DHT22;66343;44.588;33.450;2023-06-22T08:51:41;26.60;54.04
76855;DHT22;66343;44.588;33.450;2023-06-22T08:54:13;26.57;54.89
76855;DHT22;66343;44.588;33.450;2023-06-22T08:56:42;26.65;53.40
76855;DHT22;66343;44.588;33.450;2023-06-22T08:59:15;26.67;52.91
76855;DHT22;66343;44.588;33.450;2023-06-22T09:01:47;26.80;51.59
76855;DHT22;66343;44.588;33.450;2023-06-22T09:04:20;26.90;48.87
76855;DHT22;66343;44.588;33.450;2023-06-22T09:06:52;26.85;46.49
76855;DHT22;66343;44.588;33.450;2023-06-22T09:09:22;26.80;48.21
76855;DHT22;66343;44.588;33.450;2023-06-22T09:11:51;26.86;47.25
76855;DHT22;66343;44.588;33.450;2023-06-22T09:14:20;26.95;49.62
76855;DHT22;66343;44.588;33.450;2023-06-22T09:16:49;27.10;48.29
76855;DHT22;66343;44.588;33.450;2023-06-22T09:19:19;27.12;47.75
76855;DHT22;66343;44.588;33.450;2023-06-22T09:21:48;27.10;47.80
76855;DHT22;66343;44.588;33.450;2023-06-22T09:24:17;27.15;48.11
76855;DHT22;66343;44.588;33.450;2023-06-22T09:26:46;27.16;48.57
76855;DHT22;66343;44.588;33.450;2023-06-22T09:29:15;27.16;48.26
76855;DHT22;66343;44.588;33.450;2023-06-22T09:31:45;27.08;48.73
76855;DHT22;66343;44.588;33.450;2023-06-22T09:34:15;26.97;48.47
76855;DHT22;66343;44.588;33.450;2023-06-22T09:36:49;26.97;49.97
76855;DHT22;66343;44.588;33.450;2023-06-22T09:39:18;26.94;49.42
76855;DHT22;66343;44.588;33.450;2023-06-22T09:41:47;26.94;48.46
76855;DHT22;66343;44.588;33.450;2023-06-22T09:44:16;26.98;50.04
76855;DHT22;66343;44.588;33.450;2023-06-22T09:46:46;27.10;51.09
76855;DHT22;66343;44.588;33.450;2023-06-22T09:49:15;27.05;50.80
76855;DHT22;66343;44.588;33.450;2023-06-22T09:51:44;27.04;52.03
76855;DHT22;66343;44.588;33.450;2023-06-22T09:54:13;26.98;51.90
76855;DHT22;66343;44.588;33.450;2023-06-22T09:56:44;26.96;50.09
76855;DHT22;66343;44.588;33.450;2023-06-22T09:59:13;27.00;52.88
76855;DHT22;66343;44.588;33.450;2023-06-22T10:01:46;26.99;50.97
76855;DHT22;66343;44.588;33.450;2023-06-22T10:04:15;26.97;52.58
76855;DHT22;66343;44.588;33.450;2023-06-22T10:06:45;27.07;51.91
76855;DHT22;66343;44.588;33.450;2023-06-22T10:09:14;26.98;53.17
76855;DHT22;66343;44.588;33.450;2023-06-22T10:11:43;26.91;53.60
76855;DHT22;66343;44.588;33.450;2023-06-22T10:14:15;26.93;53.71
76855;DHT22;66343;44.588;33.450;2023-06-22T10:16:45;27.01;54.43
76855;DHT22;66343;44.588;33.450;2023-06-22T10:19:15;27.05;54.91
76855;DHT22;66343;44.588;33.450;2023-06-22T10:21:47;27.16;52.66
76855;DHT22;66343;44.588;33.450;2023-06-22T10:24:16;27.39;54.04
76855;DHT22;66343;44.588;33.450;2023-06-22T10:26:46;27.27;54.39
76855;DHT22;66343;44.588;33.450;2023-06-22T10:29:15;27.24;54.59
76855;DHT22;66343;44.588;33.450;2023-06-22T10:31:47;27.21;55.49
76855;DHT22;66343;44.588;33.450;2023-06-22T10:34:19;27.24;54.77
76855;DHT22;66343;44.588;33.450;2023-06-22T10:36:51;27.30;52.40
76855;DHT22;66343;44.588;33.450;2023-06-22T10:39:20;27.39;53.59
76855;DHT22;66343;44.588;33.450;2023-06-22T10:41:50;27.41;54.16
76855;DHT22;66343;44.588;33.450;2023-06-22T10:44:19;27.60;51.94
76855;DHT22;66343;44.588;33.450;2023-06-22T10:46:52;27.64;52.73
76855;DHT22;66343;44.588;33.450;2023-06-22T10:49:21;27.65;52.37
76855;DHT22;66343;44.588;33.450;2023-06-22T10:51:50;27.76;52.58
76855;DHT22;66343;44.588;33.450;2023-06-22T10:54:19;27.70;53.52
76855;DHT22;66343;44.588;33.450;2023-06-22T10:56:51;27.87;53.90
76855;DHT22;66343;44.588;33.450;2023-06-22T10:59:25;27.80;53.52
76855;DHT22;66343;44.588;33.450;2023-06-22T11:02:00;27.96;53.95
76855;DHT22;66343;44.588;33.450;2023-06-22T11:04:29;27.82;52.84
76855;DHT22;66343;44.588;33.450;2023-06-22T11:06:59;27.79;52.91
76855;DHT22;66343;44.588;33.450;2023-06-22T11:09:28;27.70;54.84
76855;DHT22;66343;44.588;33.450;2023-06-22T11:12:00;27.70;53.01
76855;DHT22;66343;44.588;33.450;2023-06-22T11:14:32;27.65;54.41
76855;DHT22;66343;44.588;33.450;2023-06-22T11:17:07;27.72;54.72
76855;DHT22;66343;44.588;33.450;2023-06-22T11:19:36;27.53;55.34
76855;DHT22;66343;44.588;33.450;2023-06-22T11:22:05;27.56;55.05
76855;DHT22;66343;44.588;33.450;2023-06-22T11:24:35;27.66;56.35
76855;DHT22;66343;44.588;33.450;2023-06-22T11:27:12;27.64;52.68
76855;DHT22;66343;44.588;33.450;2023-06-22T11:29:41;27.49;54.33
76855;DHT22;66343;44.588;33.450;2023-06-22T11:32:10;27.51;54.42
76855;DHT22;66343;44.588;33.450;2023-06-22T11:34:42;27.59;53.18
76855;DHT22;66343;44.588;33.450;2023-06-22T11:37:13;27.50;52.85
76855;DHT22;66343;44.588;33.450;2023-06-22T11:39:43;27.47;53.97
76855;DHT22;66343;44.588;33.450;2023-06-22T11:42:21;27.52;53.16
76855;DHT22;66343;44.588;33.450;2023-06-22T11:44:55;27.78;53.35
76855;DHT22;66343;44.588;33.450;2023-06-22T11:47:26;28.00;53.37
76855;DHT22;66343;44.588;33.450;2023-06-22T11:49:56;28.15;53.35
76855;DHT22;66343;44.588;33.450;2023-06-22T11:52:25;28.43;52.16
76855;DHT22;66343;44.588;33.450;2023-06-22T11:54:56;28.46;52.32
76855;DHT22;66343;44.588;33.450;2023-06-22T11:57:25;28.61;52.35
76855;DHT22;66343;44.588;33.450;2023-06-22T11:59:57;28.60;51.98
76855;DHT22;66343;44.588;33.450;2023-06-22T12:02:26;28.57;51.98
76855;DHT22;66343;44.588;33.450;2023-06-22T12:05:00;28.45;52.43
76855;DHT22;66343;44.588;33.450;2023-06-22T12:07:40;28.56;53.04
76855;DHT22;66343;44.588;33.450;2023-06-22T12:10:13;28.82;51.92
76855;DHT22;66343;44.588;33.450;2023-06-22T12:12:42;28.95;52.19
76855;DHT22;66343;44.588;33.450;2023-06-22T12:15:11;28.94;50.78
76855;DHT22;66343;44.588;33.450;2023-06-22T12:17:43;28.79;51.52
76855;DHT22;66343;44.588;33.450;2023-06-22T12:20:12;28.82;51.80
76855;DHT22;66343;44.588;33.450;2023-06-22T12:22:42;28.78;51.07
76855;DHT22;66343;44.588;33.450;2023-06-22T12:25:12;28.86;50.87
76855;DHT22;66343;44.588;33.450;2023-06-22T12:27:41;28.65;49.57
76855;DHT22;66343;44.588;33.450;2023-06-22T12:30:10;28.63;51.09
76855;DHT22;66343;44.588;33.450;2023-06-22T12:32:39;28.82;52.53
76855;DHT22;66343;44.588;33.450;2023-06-22T12:35:09;28.99;50.03
76855;DHT22;66343;44.588;33.450;2023-06-22T12:37:42;28.80;50.82
76855;DHT22;66343;44.588;33.450;2023-06-22T12:40:12;28.63;51.31
76855;DHT22;66343;44.588;33.450;2023-06-22T12:42:41;28.72;50.85
76855;DHT22;66343;44.588;33.450;2023-06-22T12:45:11;28.84;50.79
76855;DHT22;66343;44.588;33.450;2023-06-22T12:47:42;28.95;52.16
76855;DHT22;66343;44.588;33.450;2023-06-22T12:50:12;28.72;52.16
76855;DHT22;66343;44.588;33.450;2023-06-22T12:52:42;28.50;51.58
76855;DHT22;66343;44.588;33.450;2023-06-22T12:55:11;28.37;53.72
76855;DHT22;66343;44.588;33.450;2023-06-22T12:57:46;28.63;52.07
76855;DHT22;66343;44.588;33.450;2023-06-22T13:00:16;28.41;54.00
76855;DHT22;66343;44.588;33.450;2023-06-22T13:02:49;28.11;54.73
76855;DHT22;66343;44.588;33.450;2023-06-22T13:05:19;27.96;55.82
76855;DHT22;66343;44.588;33.450;2023-06-22T13:07:49;28.03;55.93
76855;DHT22;66343;44.588;33.450;2023-06-22T13:10:19;28.16;55.76
76855;DHT22;66343;44.588;33.450;2023-06-22T13:12:48;28.23;53.95
76855;DHT22;66343;44.588;33.450;2023-06-22T13:15:17;28.39;54.28
76855;DHT22;66343;44.588;33.450;2023-06-22T13:17:49;28.62;54.82
76855;DHT22;66343;44.588;33.450;2023-06-22T13:20:18;28.73;53.62
76855;DHT22;66343;44.588;33.450;2023-06-22T13:22:52;28.93;52.54
76855;DHT22;66343;44.588;33.450;2023-06-22T13:25:22;29.00;52.42
76855;DHT22;66343;44.588;33.450;2023-06-22T13:27:56;29.11;53.05
76855;DHT22;66343;44.588;33.450;2023-06-22T13:30:28;29.07;52.01
76855;DHT22;66343;44.588;33.450;2023-06-22T13:32:57;28.99;53.81
76855;DHT22;66343;44.588;33.450;2023-06-22T13:35:27;29.37;52.69
76855;DHT22;66343;44.588;33.450;2023-06-22T13:37:56;29.71;51.83
76855;DHT22;66343;44.588;33.450;2023-06-22T13:40:26;30.07;47.87
76855;DHT22;66343;44.588;33.450;2023-06-22T13:42:57;30.35;45.13
76855;DHT22;66343;44.588;33.450;2023-06-22T13:45:27;30.33;46.96
76855;DHT22;66343;44.588;33.450;2023-06-22T13:47:56;29.98;47.21
76855;DHT22;66343;44.588;33.450;2023-06-22T13:50:26;30.07;48.30
76855;DHT22;66343;44.588;33.450;2023-06-22T13:52:58;30.33;47.06
76855;DHT22;66343;44.588;33.450;2023-06-22T13:55:30;30.47;45.40
76855;DHT22;66343;44.588;33.450;2023-06-22T13:58:00;30.67;45.03
76855;DHT22;66343;44.588;33.450;2023-06-22T14:00:29;30.94;45.90
76855;DHT22;66343;44.588;33.450;2023-06-22T14:03:01;31.01;46.31
76855;DHT22;66343;44.588;33.450;2023-06-22T14:05:33;31.09;44.75
76855;DHT22;66343;44.588;33.450;2023-06-22T14:08:02;30.68;44.90
76855;DHT22;66343;44.588;33.450;2023-06-22T14:10:47;30.41;45.21
76855;DHT22;66343;44.588;33.450;2023-06-22T14:13:17;30.02;45.73
76855;DHT22;66343;44.588;33.450;2023-06-22T14:15:48;30.01;45.89
76855;DHT22;66343;44.588;33.450;2023-06-22T14:18:17;30.53;45.15
76855;DHT22;66343;44.588;33.450;2023-06-22T14:20:47;30.10;46.67
76855;DHT22;66343;44.588;33.450;2023-06-22T14:23:16;29.62;48.31
76855;DHT22;66343;44.588;33.450;2023-06-22T14:25:45;29.31;47.84
76855;DHT22;66343;44.588;33.450;2023-06-22T14:28:15;29.12;47.25
76855;DHT22;66343;44.588;33.450;2023-06-22T14:30:50;28.98;46.05
76855;DHT22;66343;44.588;33.450;2023-06-22T14:33:20;28.93;47.63
76855;DHT22;66343;44.588;33.450;2023-06-22T14:35:52;28.80;45.80
76855;DHT22;66343;44.588;33.450;2023-06-22T14:38:24;29.14;45.95
76855;DHT22;66343;44.588;33.450;2023-06-22T14:40:53;29.31;43.64
76855;DHT22;66343;44.588;33.450;2023-06-22T14:43:27;29.30;43.88
76855;DHT22;66343;44.588;33.450;2023-06-22T14:45:56;29.66;43.55
76855;DHT22;66343;44.588;33.450;2023-06-22T14:48:28;29.58;43.00
76855;DHT22;66343;44.588;33.450;2023-06-22T14:51:00;29.35;44.11
76855;DHT22;66343;44.588;33.450;2023-06-22T14:53:29;29.23;45.83
76855;DHT22;66343;44.588;33.450;2023-06-22T14:56:02;28.98;46.44
76855;DHT22;66343;44.588;33.450;2023-06-22T14:58:32;28.79;47.88
76855;DHT22;66343;44.588;33.450;2023-06-22T15:01:05;28.58;48.00
76855;DHT22;66343;44.588;33.450;2023-06-22T15:03:39;28.45;47.68
76855;DHT22;66343;44.588;33.450;2023-06-22T15:06:09;28.49;47.35
76855;DHT22;66343;44.588;33.450;2023-06-22T15:08:40;28.73;46.77
76855;DHT22;66343;44.588;33.450;2023-06-22T15:11:09;29.32;47.74
76855;DHT22;66343;44.588;33.450;2023-06-22T15:13:39;29.59;41.36
76855;DHT22;66343;44.588;33.450;2023-06-22T15:16:09;29.90;42.25
76855;DHT22;66343;44.588;33.450;2023-06-22T15:18:39;30.13;42.13
76855;DHT22;66343;44.588;33.450;2023-06-22T15:21:10;30.22;41.31
76855;DHT22;66343;44.588;33.450;2023-06-22T15:23:44;30.33;41.35
76855;DHT22;66343;44.588;33.450;2023-06-22T15:26:13;30.54;41.61
76855;DHT22;66343;44.588;33.450;2023-06-22T15:28:43;30.54;41.29
76855;DHT22;66343;44.588;33.450;2023-06-22T15:31:12;30.34;43.29
76855;DHT22;66343;44.588;33.450;2023-06-22T15:33:44;30.63;44.48
76855;DHT22;66343;44.588;33.450;2023-06-22T15:36:16;30.37;44.99
76855;DHT22;66343;44.588;33.450;2023-06-22T15:38:45;30.52;42.32
76855;DHT22;66343;44.588;33.450;2023-06-22T15:41:16;30.28;44.21
76855;DHT22;66343;44.588;33.450;2023-06-22T15:43:48;30.31;41.72
76855;DHT22;66343;44.588;33.450;2023-06-22T15:46:18;30.13;44.64